Terminal Aerodrome Forecast
Issued by NWS

Home | Current Version | Previous Version | Text Only | Print | Product List | Glossary On
Versions: 1 2 3 4 5 6 7 8 9 10 11 12 13 14 15 16 17 18
398
FTUS46 KPDT 301120
TAFYKM
TAF
KYKM 301120Z 3012/3112 28008KT P6SM FEW150 SCT250
     FM301400 VRB05KT P6SM SCT140 SCT250
     FM310300 29007KT P6SM SCT250=

USA.gov is the U.S. government's official web portal to all federal, state and local government web resources and services.